Terminal Aerodrome Forecast
Issued by NWS

Home | Current Version | Previous Version | Text Only | Print | Product List | Glossary On
Versions: 1 2 3 4 5 6 7 8 9 10 11 12 13 14 15 16 17 18 19 20 21 22 23 24 25 26 27
000
FTUS43 KICT 290302 AAA
TAFHUT
TAF AMD
KHUT 290302Z 2903/2924 04017G25KT 5SM -TSRA OVC014CB
      TEMPO 2903/2907 2SM TSRA OVC007CB
     FM290700 06019G27KT 4SM -TSRA OVC006CB
     FM291800 04014G21KT P6SM VCSH OVC008=

USA.gov is the U.S. government's official web portal to all federal, state and local government web resources and services.